sensor_id;sensor_type;location;lat;lon;timestamp;P1;durP1;ratioP1;P2;durP2;ratioP2
28531;SDS011;15738;44.860;10.066;2022-12-18T00:00:43;70.82;;;40.03;;
28531;SDS011;15738;44.860;10.066;2022-12-18T00:03:29;70.95;;;39.08;;
28531;SDS011;15738;44.860;10.066;2022-12-18T00:06:15;71.25;;;40.03;;
28531;SDS011;15738;44.860;10.066;2022-12-18T00:09:02;74.90;;;39.60;;
28531;SDS011;15738;44.860;10.066;2022-12-18T00:11:49;70.65;;;40.40;;
28531;SDS011;15738;44.860;10.066;2022-12-18T00:14:34;71.07;;;40.08;;
28531;SDS011;15738;44.860;10.066;2022-12-18T00:17:20;78.72;;;40.83;;
28531;SDS011;15738;44.860;10.066;2022-12-18T00:20:06;71.30;;;40.33;;
28531;SDS011;15738;44.860;10.066;2022-12-18T00:22:52;69.22;;;39.17;;
28531;SDS011;15738;44.860;10.066;2022-12-18T00:25:38;69.13;;;39.83;;
28531;SDS011;15738;44.860;10.066;2022-12-18T00:28:24;71.80;;;40.47;;
28531;SDS011;15738;44.860;10.066;2022-12-18T00:31:10;66.28;;;36.70;;
28531;SDS011;15738;44.860;10.066;2022-12-18T00:33:58;75.10;;;41.55;;
28531;SDS011;15738;44.860;10.066;2022-12-18T00:36:46;71.47;;;40.58;;
28531;SDS011;15738;44.860;10.066;2022-12-18T00:39:32;71.90;;;40.53;;
28531;SDS011;15738;44.860;10.066;2022-12-18T00:42:18;76.03;;;42.40;;
28531;SDS011;15738;44.860;10.066;2022-12-18T00:45:26;66.72;;;38.50;;
28531;SDS011;15738;44.860;10.066;2022-12-18T00:48:14;67.15;;;37.97;;
28531;SDS011;15738;44.860;10.066;2022-12-18T00:51:00;69.05;;;40.13;;
28531;SDS011;15738;44.860;10.066;2022-12-18T00:53:45;74.18;;;41.58;;
28531;SDS011;15738;44.860;10.066;2022-12-18T00:56:31;71.85;;;40.42;;
28531;SDS011;15738;44.860;10.066;2022-12-18T00:59:17;76.25;;;41.28;;
28531;SDS011;15738;44.860;10.066;2022-12-18T01:02:03;70.72;;;40.83;;
28531;SDS011;15738;44.860;10.066;2022-12-18T01:04:49;72.75;;;40.03;;
28531;SDS011;15738;44.860;10.066;2022-12-18T01:07:37;75.38;;;40.38;;
28531;SDS011;15738;44.860;10.066;2022-12-18T01:10:23;75.18;;;41.53;;
28531;SDS011;15738;44.860;10.066;2022-12-18T01:13:10;73.03;;;41.65;;
28531;SDS011;15738;44.860;10.066;2022-12-18T01:15:55;69.80;;;40.03;;
28531;SDS011;15738;44.860;10.066;2022-12-18T01:18:41;71.95;;;40.97;;
28531;SDS011;15738;44.860;10.066;2022-12-18T01:21:27;71.43;;;40.13;;
28531;SDS011;15738;44.860;10.066;2022-12-18T01:24:13;70.50;;;40.42;;
28531;SDS011;15738;44.860;10.066;2022-12-18T01:26:59;70.22;;;40.47;;
28531;SDS011;15738;44.860;10.066;2022-12-18T01:29:45;71.93;;;40.10;;
28531;SDS011;15738;44.860;10.066;2022-12-18T01:32:31;71.68;;;41.47;;
28531;SDS011;15738;44.860;10.066;2022-12-18T01:35:17;70.03;;;40.33;;
28531;SDS011;15738;44.860;10.066;2022-12-18T01:38:03;77.90;;;42.50;;
28531;SDS011;15738;44.860;10.066;2022-12-18T01:40:49;79.82;;;42.20;;
28531;SDS011;15738;44.860;10.066;2022-12-18T01:43:46;84.40;;;44.55;;
28531;SDS011;15738;44.860;10.066;2022-12-18T01:46:34;82.57;;;43.83;;
28531;SDS011;15738;44.860;10.066;2022-12-18T01:49:20;86.03;;;44.00;;
28531;SDS011;15738;44.860;10.066;2022-12-18T01:52:06;84.85;;;43.42;;
28531;SDS011;15738;44.860;10.066;2022-12-18T01:54:51;89.07;;;44.90;;
28531;SDS011;15738;44.860;10.066;2022-12-18T01:57:38;95.32;;;45.78;;
28531;SDS011;15738;44.860;10.066;2022-12-18T02:00:25;97.75;;;45.30;;
28531;SDS011;15738;44.860;10.066;2022-12-18T02:03:11;93.72;;;45.97;;
28531;SDS011;15738;44.860;10.066;2022-12-18T02:06:05;103.72;;;48.30;;
28531;SDS011;15738;44.860;10.066;2022-12-18T02:17:30;102.00;;;49.50;;
28531;SDS011;15738;44.860;10.066;2022-12-18T02:20:45;97.22;;;47.55;;
28531;SDS011;15738;44.860;10.066;2022-12-18T02:23:44;105.20;;;48.55;;
28531;SDS011;15738;44.860;10.066;2022-12-18T02:26:36;99.82;;;47.08;;
28531;SDS011;15738;44.860;10.066;2022-12-18T02:29:31;99.85;;;47.45;;
28531;SDS011;15738;44.860;10.066;2022-12-18T02:32:27;97.18;;;46.95;;
28531;SDS011;15738;44.860;10.066;2022-12-18T02:35:19;97.88;;;46.92;;
28531;SDS011;15738;44.860;10.066;2022-12-18T02:38:11;93.03;;;46.03;;
28531;SDS011;15738;44.860;10.066;2022-12-18T02:41:01;99.25;;;47.25;;
28531;SDS011;15738;44.860;10.066;2022-12-18T02:43:50;87.63;;;42.83;;
28531;SDS011;15738;44.860;10.066;2022-12-18T02:46:42;88.82;;;43.88;;
28531;SDS011;15738;44.860;10.066;2022-12-18T02:59:02;91.13;;;40.88;;
28531;SDS011;15738;44.860;10.066;2022-12-18T03:02:04;83.88;;;41.38;;
28531;SDS011;15738;44.860;10.066;2022-12-18T03:07:49;101.05;;;41.05;;
28531;SDS011;15738;44.860;10.066;2022-12-18T03:10:45;106.85;;;40.00;;
28531;SDS011;15738;44.860;10.066;2022-12-18T03:13:45;87.82;;;39.45;;
28531;SDS011;15738;44.860;10.066;2022-12-18T03:16:36;82.15;;;38.50;;
28531;SDS011;15738;44.860;10.066;2022-12-18T03:19:24;78.28;;;39.95;;
28531;SDS011;15738;44.860;10.066;2022-12-18T03:25:07;75.88;;;37.10;;
28531;SDS011;15738;44.860;10.066;2022-12-18T03:27:59;72.70;;;36.20;;
28531;SDS011;15738;44.860;10.066;2022-12-18T03:30:50;72.68;;;36.08;;
28531;SDS011;15738;44.860;10.066;2022-12-18T03:33:45;79.93;;;39.00;;
28531;SDS011;15738;44.860;10.066;2022-12-18T03:36:39;81.15;;;38.35;;
28531;SDS011;15738;44.860;10.066;2022-12-18T03:39:25;82.43;;;39.20;;
28531;SDS011;15738;44.860;10.066;2022-12-18T03:42:21;85.90;;;41.15;;
28531;SDS011;15738;44.860;10.066;2022-12-18T03:45:27;84.35;;;39.08;;
28531;SDS011;15738;44.860;10.066;2022-12-18T03:48:29;88.20;;;39.78;;
28531;SDS011;15738;44.860;10.066;2022-12-18T03:51:41;87.60;;;41.65;;
28531;SDS011;15738;44.860;10.066;2022-12-18T03:54:34;90.65;;;41.78;;
28531;SDS011;15738;44.860;10.066;2022-12-18T03:57:29;91.20;;;41.47;;
28531;SDS011;15738;44.860;10.066;2022-12-18T04:00:21;91.97;;;41.05;;
28531;SDS011;15738;44.860;10.066;2022-12-18T04:03:19;95.88;;;42.60;;
28531;SDS011;15738;44.860;10.066;2022-12-18T04:06:10;97.65;;;42.67;;
28531;SDS011;15738;44.860;10.066;2022-12-18T04:08:59;99.13;;;43.85;;
28531;SDS011;15738;44.860;10.066;2022-12-18T04:11:46;102.15;;;44.58;;
28531;SDS011;15738;44.860;10.066;2022-12-18T04:14:34;97.85;;;42.53;;
28531;SDS011;15738;44.860;10.066;2022-12-18T04:17:22;94.88;;;41.60;;
28531;SDS011;15738;44.860;10.066;2022-12-18T04:20:09;99.93;;;44.25;;
28531;SDS011;15738;44.860;10.066;2022-12-18T04:22:58;98.93;;;43.22;;
28531;SDS011;15738;44.860;10.066;2022-12-18T04:25:46;101.00;;;41.92;;
28531;SDS011;15738;44.860;10.066;2022-12-18T04:28:40;118.25;;;42.42;;
28531;SDS011;15738;44.860;10.066;2022-12-18T04:31:27;102.00;;;42.95;;
28531;SDS011;15738;44.860;10.066;2022-12-18T04:34:13;102.20;;;44.03;;
28531;SDS011;15738;44.860;10.066;2022-12-18T04:37:05;101.95;;;42.78;;
28531;SDS011;15738;44.860;10.066;2022-12-18T04:39:51;111.53;;;44.15;;
28531;SDS011;15738;44.860;10.066;2022-12-18T04:42:44;102.28;;;43.00;;
28531;SDS011;15738;44.860;10.066;2022-12-18T04:45:30;98.28;;;43.38;;
28531;SDS011;15738;44.860;10.066;2022-12-18T04:48:16;95.57;;;40.72;;
28531;SDS011;15738;44.860;10.066;2022-12-18T04:51:03;94.60;;;42.42;;
28531;SDS011;15738;44.860;10.066;2022-12-18T04:53:49;111.47;;;43.78;;
28531;SDS011;15738;44.860;10.066;2022-12-18T04:56:34;97.70;;;41.50;;
28531;SDS011;15738;44.860;10.066;2022-12-18T04:59:20;106.18;;;44.42;;
28531;SDS011;15738;44.860;10.066;2022-12-18T05:02:06;105.00;;;44.35;;
28531;SDS011;15738;44.860;10.066;2022-12-18T05:04:51;107.45;;;43.75;;
28531;SDS011;15738;44.860;10.066;2022-12-18T05:07:37;108.18;;;43.60;;
28531;SDS011;15738;44.860;10.066;2022-12-18T05:10:24;96.68;;;41.78;;
28531;SDS011;15738;44.860;10.066;2022-12-18T05:13:10;107.57;;;40.38;;
28531;SDS011;15738;44.860;10.066;2022-12-18T05:15:56;120.28;;;41.83;;
28531;SDS011;15738;44.860;10.066;2022-12-18T05:18:42;111.57;;;43.08;;
28531;SDS011;15738;44.860;10.066;2022-12-18T05:21:28;101.85;;;42.00;;
28531;SDS011;15738;44.860;10.066;2022-12-18T05:24:14;111.53;;;43.97;;
28531;SDS011;15738;44.860;10.066;2022-12-18T05:27:00;98.70;;;41.45;;
28531;SDS011;15738;44.860;10.066;2022-12-18T05:29:46;107.10;;;43.90;;
28531;SDS011;15738;44.860;10.066;2022-12-18T05:32:31;123.43;;;44.33;;
28531;SDS011;15738;44.860;10.066;2022-12-18T05:35:17;97.13;;;41.90;;
28531;SDS011;15738;44.860;10.066;2022-12-18T05:38:03;115.35;;;44.97;;
28531;SDS011;15738;44.860;10.066;2022-12-18T05:40:49;111.70;;;44.28;;
28531;SDS011;15738;44.860;10.066;2022-12-18T05:43:36;112.35;;;41.60;;
28531;SDS011;15738;44.860;10.066;2022-12-18T05:46:24;106.38;;;41.85;;
28531;SDS011;15738;44.860;10.066;2022-12-18T05:49:10;104.97;;;40.35;;
28531;SDS011;15738;44.860;10.066;2022-12-18T05:51:56;104.70;;;41.83;;
28531;SDS011;15738;44.860;10.066;2022-12-18T05:54:41;106.18;;;41.55;;
28531;SDS011;15738;44.860;10.066;2022-12-18T05:57:27;110.72;;;40.38;;
28531;SDS011;15738;44.860;10.066;2022-12-18T06:00:13;103.72;;;40.60;;
28531;SDS011;15738;44.860;10.066;2022-12-18T06:03:00;96.07;;;38.30;;
28531;SDS011;15738;44.860;10.066;2022-12-18T06:05:46;101.38;;;40.55;;
28531;SDS011;15738;44.860;10.066;2022-12-18T06:08:32;96.95;;;38.65;;
28531;SDS011;15738;44.860;10.066;2022-12-18T06:11:19;105.95;;;41.03;;
28531;SDS011;15738;44.860;10.066;2022-12-18T06:14:06;102.28;;;39.83;;
28531;SDS011;15738;44.860;10.066;2022-12-18T06:16:52;100.82;;;38.10;;
28531;SDS011;15738;44.860;10.066;2022-12-18T06:19:38;108.05;;;39.78;;
28531;SDS011;15738;44.860;10.066;2022-12-18T06:22:23;100.60;;;39.05;;
28531;SDS011;15738;44.860;10.066;2022-12-18T06:25:09;96.30;;;37.85;;
28531;SDS011;15738;44.860;10.066;2022-12-18T06:27:55;94.72;;;37.17;;
28531;SDS011;15738;44.860;10.066;2022-12-18T06:30:44;93.82;;;36.38;;
28531;SDS011;15738;44.860;10.066;2022-12-18T06:33:31;108.50;;;37.25;;
28531;SDS011;15738;44.860;10.066;2022-12-18T06:36:17;111.10;;;37.00;;
28531;SDS011;15738;44.860;10.066;2022-12-18T06:39:03;114.97;;;39.75;;
28531;SDS011;15738;44.860;10.066;2022-12-18T06:41:49;102.13;;;38.50;;
28531;SDS011;15738;44.860;10.066;2022-12-18T06:44:35;106.53;;;38.55;;
28531;SDS011;15738;44.860;10.066;2022-12-18T06:47:21;100.10;;;39.30;;
28531;SDS011;15738;44.860;10.066;2022-12-18T06:50:06;95.18;;;35.88;;
28531;SDS011;15738;44.860;10.066;2022-12-18T06:52:52;101.03;;;36.20;;
28531;SDS011;15738;44.860;10.066;2022-12-18T06:55:38;100.15;;;36.88;;
28531;SDS011;15738;44.860;10.066;2022-12-18T06:58:25;94.22;;;37.33;;
28531;SDS011;15738;44.860;10.066;2022-12-18T07:01:12;108.05;;;37.70;;
28531;SDS011;15738;44.860;10.066;2022-12-18T07:03:59;112.93;;;40.85;;
28531;SDS011;15738;44.860;10.066;2022-12-18T07:06:44;117.65;;;40.28;;
28531;SDS011;15738;44.860;10.066;2022-12-18T07:09:30;120.65;;;42.30;;
28531;SDS011;15738;44.860;10.066;2022-12-18T07:12:16;115.97;;;40.13;;
28531;SDS011;15738;44.860;10.066;2022-12-18T07:15:02;125.38;;;41.00;;
28531;SDS011;15738;44.860;10.066;2022-12-18T07:17:48;124.68;;;42.17;;
28531;SDS011;15738;44.860;10.066;2022-12-18T07:20:33;123.80;;;41.58;;
28531;SDS011;15738;44.860;10.066;2022-12-18T07:23:20;122.13;;;40.20;;
28531;SDS011;15738;44.860;10.066;2022-12-18T07:26:06;122.50;;;40.90;;
28531;SDS011;15738;44.860;10.066;2022-12-18T07:28:56;119.32;;;39.50;;
28531;SDS011;15738;44.860;10.066;2022-12-18T07:31:42;117.60;;;39.90;;
28531;SDS011;15738;44.860;10.066;2022-12-18T07:34:29;114.25;;;39.13;;
28531;SDS011;15738;44.860;10.066;2022-12-18T07:37:14;113.80;;;39.47;;
28531;SDS011;15738;44.860;10.066;2022-12-18T07:40:00;110.78;;;37.58;;
28531;SDS011;15738;44.860;10.066;2022-12-18T07:42:47;106.57;;;36.97;;
28531;SDS011;15738;44.860;10.066;2022-12-18T07:45:32;106.57;;;37.03;;
28531;SDS011;15738;44.860;10.066;2022-12-18T07:48:18;106.25;;;38.33;;
28531;SDS011;15738;44.860;10.066;2022-12-18T07:51:05;112.68;;;38.75;;
28531;SDS011;15738;44.860;10.066;2022-12-18T07:53:51;99.93;;;37.88;;
28531;SDS011;15738;44.860;10.066;2022-12-18T07:56:37;92.85;;;34.67;;
28531;SDS011;15738;44.860;10.066;2022-12-18T07:59:22;103.07;;;37.38;;
28531;SDS011;15738;44.860;10.066;2022-12-18T08:02:09;107.13;;;37.85;;
28531;SDS011;15738;44.860;10.066;2022-12-18T08:04:56;90.88;;;34.60;;
28531;SDS011;15738;44.860;10.066;2022-12-18T08:07:41;95.88;;;34.13;;
28531;SDS011;15738;44.860;10.066;2022-12-18T08:10:28;93.70;;;35.13;;
28531;SDS011;15738;44.860;10.066;2022-12-18T08:13:13;90.80;;;34.97;;
28531;SDS011;15738;44.860;10.066;2022-12-18T08:16:00;89.03;;;32.90;;
28531;SDS011;15738;44.860;10.066;2022-12-18T08:18:48;91.97;;;35.15;;
28531;SDS011;15738;44.860;10.066;2022-12-18T08:21:34;91.97;;;34.22;;
28531;SDS011;15738;44.860;10.066;2022-12-18T08:24:20;91.30;;;34.30;;
28531;SDS011;15738;44.860;10.066;2022-12-18T08:27:06;99.07;;;35.05;;
28531;SDS011;15738;44.860;10.066;2022-12-18T08:30:12;83.68;;;32.92;;
28531;SDS011;15738;44.860;10.066;2022-12-18T08:32:58;90.57;;;33.63;;
28531;SDS011;15738;44.860;10.066;2022-12-18T08:35:43;86.07;;;32.28;;
28531;SDS011;15738;44.860;10.066;2022-12-18T08:38:31;77.78;;;32.65;;
28531;SDS011;15738;44.860;10.066;2022-12-18T08:41:17;75.60;;;31.98;;
28531;SDS011;15738;44.860;10.066;2022-12-18T08:44:03;91.50;;;34.33;;
28531;SDS011;15738;44.860;10.066;2022-12-18T08:47:08;72.68;;;31.45;;
28531;SDS011;15738;44.860;10.066;2022-12-18T08:49:53;78.90;;;32.13;;
28531;SDS011;15738;44.860;10.066;2022-12-18T08:52:39;86.70;;;32.75;;
28531;SDS011;15738;44.860;10.066;2022-12-18T08:55:25;73.72;;;31.75;;
28531;SDS011;15738;44.860;10.066;2022-12-18T08:58:11;84.75;;;30.83;;
28531;SDS011;15738;44.860;10.066;2022-12-18T09:01:00;67.03;;;29.33;;
28531;SDS011;15738;44.860;10.066;2022-12-18T09:03:47;70.63;;;30.08;;
28531;SDS011;15738;44.860;10.066;2022-12-18T09:06:36;70.00;;;30.02;;
28531;SDS011;15738;44.860;10.066;2022-12-18T09:09:22;72.82;;;30.33;;
28531;SDS011;15738;44.860;10.066;2022-12-18T09:12:08;79.60;;;32.70;;
28531;SDS011;15738;44.860;10.066;2022-12-18T09:14:54;81.45;;;32.35;;
28531;SDS011;15738;44.860;10.066;2022-12-18T09:17:40;75.40;;;32.33;;
28531;SDS011;15738;44.860;10.066;2022-12-18T09:20:26;80.88;;;32.63;;
28531;SDS011;15738;44.860;10.066;2022-12-18T09:23:13;80.03;;;34.88;;
28531;SDS011;15738;44.860;10.066;2022-12-18T09:25:59;77.00;;;34.63;;
28531;SDS011;15738;44.860;10.066;2022-12-18T09:28:45;75.78;;;32.88;;
28531;SDS011;15738;44.860;10.066;2022-12-18T09:31:31;76.53;;;33.85;;
28531;SDS011;15738;44.860;10.066;2022-12-18T09:34:16;75.93;;;32.72;;
28531;SDS011;15738;44.860;10.066;2022-12-18T09:37:02;68.20;;;30.45;;
28531;SDS011;15738;44.860;10.066;2022-12-18T09:39:47;69.03;;;31.00;;
28531;SDS011;15738;44.860;10.066;2022-12-18T09:42:33;68.90;;;31.15;;
28531;SDS011;15738;44.860;10.066;2022-12-18T09:45:19;61.97;;;28.75;;
28531;SDS011;15738;44.860;10.066;2022-12-18T09:48:05;66.60;;;30.33;;
28531;SDS011;15738;44.860;10.066;2022-12-18T09:51:00;80.75;;;35.00;;
28531;SDS011;15738;44.860;10.066;2022-12-18T09:53:52;71.57;;;31.88;;
28531;SDS011;15738;44.860;10.066;2022-12-18T09:56:42;68.95;;;29.65;;
28531;SDS011;15738;44.860;10.066;2022-12-18T09:59:33;64.47;;;29.92;;
28531;SDS011;15738;44.860;10.066;2022-12-18T10:02:25;64.18;;;30.23;;
28531;SDS011;15738;44.860;10.066;2022-12-18T10:05:35;67.03;;;30.13;;
28531;SDS011;15738;44.860;10.066;2022-12-18T10:11:52;64.70;;;30.58;;
28531;SDS011;15738;44.860;10.066;2022-12-18T10:20:53;59.80;;;28.67;;
28531;SDS011;15738;44.860;10.066;2022-12-18T10:27:09;68.05;;;31.27;;
28531;SDS011;15738;44.860;10.066;2022-12-18T10:29:59;64.88;;;30.33;;
28531;SDS011;15738;44.860;10.066;2022-12-18T10:32:51;61.25;;;28.67;;
28531;SDS011;15738;44.860;10.066;2022-12-18T10:35:37;67.97;;;28.27;;
28531;SDS011;15738;44.860;10.066;2022-12-18T10:38:28;64.00;;;29.35;;
28531;SDS011;15738;44.860;10.066;2022-12-18T10:44:15;63.70;;;29.50;;
28531;SDS011;15738;44.860;10.066;2022-12-18T10:47:04;66.75;;;30.60;;
28531;SDS011;15738;44.860;10.066;2022-12-18T10:49:55;62.40;;;29.25;;
28531;SDS011;15738;44.860;10.066;2022-12-18T10:52:41;63.88;;;29.10;;
28531;SDS011;15738;44.860;10.066;2022-12-18T10:55:34;60.88;;;29.83;;
28531;SDS011;15738;44.860;10.066;2022-12-18T10:58:23;61.70;;;30.20;;
28531;SDS011;15738;44.860;10.066;2022-12-18T11:01:12;57.75;;;28.95;;
28531;SDS011;15738;44.860;10.066;2022-12-18T11:04:01;64.00;;;29.60;;
28531;SDS011;15738;44.860;10.066;2022-12-18T11:06:56;60.47;;;29.98;;
28531;SDS011;15738;44.860;10.066;2022-12-18T11:09:43;70.13;;;31.48;;
28531;SDS011;15738;44.860;10.066;2022-12-18T11:12:43;65.20;;;29.60;;
28531;SDS011;15738;44.860;10.066;2022-12-18T11:15:30;60.45;;;28.77;;
28531;SDS011;15738;44.860;10.066;2022-12-18T11:18:24;69.05;;;31.02;;
28531;SDS011;15738;44.860;10.066;2022-12-18T11:21:12;69.85;;;30.60;;
28531;SDS011;15738;44.860;10.066;2022-12-18T11:23:59;64.28;;;29.75;;
28531;SDS011;15738;44.860;10.066;2022-12-18T11:26:45;60.92;;;30.60;;
28531;SDS011;15738;44.860;10.066;2022-12-18T11:29:32;66.32;;;30.10;;
28531;SDS011;15738;44.860;10.066;2022-12-18T11:32:39;72.75;;;31.50;;
28531;SDS011;15738;44.860;10.066;2022-12-18T11:38:37;65.78;;;30.58;;
28531;SDS011;15738;44.860;10.066;2022-12-18T11:41:27;65.18;;;29.90;;
28531;SDS011;15738;44.860;10.066;2022-12-18T11:44:46;55.58;;;28.58;;
28531;SDS011;15738;44.860;10.066;2022-12-18T11:47:57;59.55;;;28.40;;
28531;SDS011;15738;44.860;10.066;2022-12-18T11:50:59;57.83;;;27.02;;
28531;SDS011;15738;44.860;10.066;2022-12-18T11:53:48;57.60;;;27.50;;
28531;SDS011;15738;44.860;10.066;2022-12-18T11:56:39;63.88;;;29.20;;
28531;SDS011;15738;44.860;10.066;2022-12-18T12:03:14;55.10;;;27.23;;
28531;SDS011;15738;44.860;10.066;2022-12-18T12:17:38;59.45;;;28.15;;
28531;SDS011;15738;44.860;10.066;2022-12-18T12:26:51;56.83;;;25.80;;
28531;SDS011;15738;44.860;10.066;2022-12-18T12:29:41;50.60;;;25.35;;
28531;SDS011;15738;44.860;10.066;2022-12-18T12:32:49;52.10;;;26.70;;
28531;SDS011;15738;44.860;10.066;2022-12-18T12:38:45;59.22;;;28.48;;
28531;SDS011;15738;44.860;10.066;2022-12-18T12:41:36;52.67;;;26.08;;
28531;SDS011;15738;44.860;10.066;2022-12-18T12:44:53;59.17;;;28.10;;
28531;SDS011;15738;44.860;10.066;2022-12-18T12:47:41;57.83;;;28.02;;
28531;SDS011;15738;44.860;10.066;2022-12-18T12:50:30;53.55;;;26.20;;
28531;SDS011;15738;44.860;10.066;2022-12-18T12:53:23;56.17;;;27.27;;
28531;SDS011;15738;44.860;10.066;2022-12-18T12:59:11;56.67;;;26.45;;
28531;SDS011;15738;44.860;10.066;2022-12-18T13:07:50;57.22;;;27.70;;
28531;SDS011;15738;44.860;10.066;2022-12-18T13:10:42;61.92;;;29.55;;
28531;SDS011;15738;44.860;10.066;2022-12-18T13:13:28;55.42;;;27.65;;
28531;SDS011;15738;44.860;10.066;2022-12-18T13:16:38;61.03;;;28.98;;
28531;SDS011;15738;44.860;10.066;2022-12-18T13:19:23;57.08;;;27.15;;
28531;SDS011;15738;44.860;10.066;2022-12-18T13:22:24;62.30;;;28.85;;
28531;SDS011;15738;44.860;10.066;2022-12-18T13:28:18;59.80;;;27.95;;
28531;SDS011;15738;44.860;10.066;2022-12-18T13:31:05;65.93;;;29.25;;
28531;SDS011;15738;44.860;10.066;2022-12-18T13:33:52;61.15;;;28.88;;
28531;SDS011;15738;44.860;10.066;2022-12-18T13:43:35;66.97;;;29.10;;
28531;SDS011;15738;44.860;10.066;2022-12-18T13:46:43;66.15;;;29.73;;
28531;SDS011;15738;44.860;10.066;2022-12-18T13:52:28;66.10;;;30.13;;
28531;SDS011;15738;44.860;10.066;2022-12-18T13:55:19;69.00;;;29.05;;
28531;SDS011;15738;44.860;10.066;2022-12-18T13:58:06;61.25;;;29.15;;
28531;SDS011;15738;44.860;10.066;2022-12-18T14:00:53;54.33;;;27.02;;
28531;SDS011;15738;44.860;10.066;2022-12-18T14:03:39;64.07;;;29.55;;
28531;SDS011;15738;44.860;10.066;2022-12-18T14:06:26;63.17;;;29.98;;
28531;SDS011;15738;44.860;10.066;2022-12-18T14:09:13;63.35;;;29.55;;
28531;SDS011;15738;44.860;10.066;2022-12-18T14:12:05;64.72;;;29.88;;
28531;SDS011;15738;44.860;10.066;2022-12-18T14:15:20;67.43;;;30.45;;
28531;SDS011;15738;44.860;10.066;2022-12-18T14:21:05;69.18;;;30.63;;
28531;SDS011;15738;44.860;10.066;2022-12-18T14:27:20;67.15;;;30.70;;
28531;SDS011;15738;44.860;10.066;2022-12-18T14:30:25;69.03;;;30.25;;
28531;SDS011;15738;44.860;10.066;2022-12-18T14:36:03;67.45;;;30.65;;
28531;SDS011;15738;44.860;10.066;2022-12-18T14:38:50;72.00;;;31.40;;
28531;SDS011;15738;44.860;10.066;2022-12-18T14:41:40;71.32;;;33.03;;
28531;SDS011;15738;44.860;10.066;2022-12-18T14:44:26;66.53;;;30.33;;
28531;SDS011;15738;44.860;10.066;2022-12-18T14:47:33;77.03;;;32.10;;
28531;SDS011;15738;44.860;10.066;2022-12-18T14:50:18;68.32;;;30.58;;
28531;SDS011;15738;44.860;10.066;2022-12-18T14:53:04;68.13;;;29.98;;
28531;SDS011;15738;44.860;10.066;2022-12-18T14:55:50;64.75;;;29.13;;
28531;SDS011;15738;44.860;10.066;2022-12-18T14:58:36;62.35;;;29.05;;
28531;SDS011;15738;44.860;10.066;2022-12-18T15:01:23;62.55;;;29.67;;
28531;SDS011;15738;44.860;10.066;2022-12-18T15:07:39;72.78;;;32.13;;
28531;SDS011;15738;44.860;10.066;2022-12-18T15:10:30;72.93;;;32.10;;
28531;SDS011;15738;44.860;10.066;2022-12-18T15:13:21;70.88;;;31.55;;
28531;SDS011;15738;44.860;10.066;2022-12-18T15:16:08;77.38;;;32.35;;
28531;SDS011;15738;44.860;10.066;2022-12-18T15:18:58;69.93;;;31.90;;
28531;SDS011;15738;44.860;10.066;2022-12-18T15:21:45;71.30;;;30.08;;
28531;SDS011;15738;44.860;10.066;2022-12-18T15:24:31;78.55;;;33.13;;
28531;SDS011;15738;44.860;10.066;2022-12-18T15:27:25;69.80;;;32.00;;
28531;SDS011;15738;44.860;10.066;2022-12-18T15:30:17;72.13;;;32.10;;
28531;SDS011;15738;44.860;10.066;2022-12-18T15:33:24;78.95;;;33.00;;
28531;SDS011;15738;44.860;10.066;2022-12-18T15:36:12;68.03;;;30.55;;
28531;SDS011;15738;44.860;10.066;2022-12-18T15:39:02;70.38;;;32.13;;
28531;SDS011;15738;44.860;10.066;2022-12-18T15:41:50;68.05;;;31.10;;
28531;SDS011;15738;44.860;10.066;2022-12-18T15:44:54;62.05;;;29.83;;
28531;SDS011;15738;44.860;10.066;2022-12-18T15:47:40;71.30;;;31.17;;
28531;SDS011;15738;44.860;10.066;2022-12-18T15:50:28;75.25;;;31.10;;
28531;SDS011;15738;44.860;10.066;2022-12-18T15:53:14;73.80;;;32.03;;
28531;SDS011;15738;44.860;10.066;2022-12-18T15:56:00;73.72;;;31.73;;
28531;SDS011;15738;44.860;10.066;2022-12-18T15:59:08;73.85;;;32.25;;
28531;SDS011;15738;44.860;10.066;2022-12-18T16:01:57;71.80;;;31.30;;
28531;SDS011;15738;44.860;10.066;2022-12-18T16:04:43;70.95;;;31.50;;
28531;SDS011;15738;44.860;10.066;2022-12-18T16:07:30;75.07;;;32.38;;
28531;SDS011;15738;44.860;10.066;2022-12-18T16:10:17;69.47;;;32.05;;
28531;SDS011;15738;44.860;10.066;2022-12-18T16:13:02;64.00;;;29.80;;
28531;SDS011;15738;44.860;10.066;2022-12-18T16:15:49;70.95;;;32.53;;
28531;SDS011;15738;44.860;10.066;2022-12-18T16:18:35;77.93;;;32.25;;
28531;SDS011;15738;44.860;10.066;2022-12-18T16:21:21;76.20;;;32.72;;
28531;SDS011;15738;44.860;10.066;2022-12-18T16:24:19;75.35;;;32.22;;
28531;SDS011;15738;44.860;10.066;2022-12-18T16:27:08;79.65;;;34.75;;
28531;SDS011;15738;44.860;10.066;2022-12-18T16:29:54;70.45;;;32.08;;
28531;SDS011;15738;44.860;10.066;2022-12-18T16:32:40;72.75;;;33.45;;
28531;SDS011;15738;44.860;10.066;2022-12-18T16:35:26;70.15;;;33.67;;
28531;SDS011;15738;44.860;10.066;2022-12-18T16:38:12;75.78;;;33.78;;
28531;SDS011;15738;44.860;10.066;2022-12-18T16:40:58;75.00;;;33.08;;
28531;SDS011;15738;44.860;10.066;2022-12-18T16:44:02;70.85;;;32.63;;
28531;SDS011;15738;44.860;10.066;2022-12-18T16:46:49;72.43;;;31.80;;
28531;SDS011;15738;44.860;10.066;2022-12-18T16:49:35;73.70;;;32.00;;
28531;SDS011;15738;44.860;10.066;2022-12-18T16:52:21;82.13;;;34.03;;
28531;SDS011;15738;44.860;10.066;2022-12-18T16:55:07;71.50;;;32.67;;
28531;SDS011;15738;44.860;10.066;2022-12-18T16:57:53;71.78;;;32.25;;
28531;SDS011;15738;44.860;10.066;2022-12-18T17:00:38;80.50;;;33.53;;
28531;SDS011;15738;44.860;10.066;2022-12-18T17:03:25;78.38;;;33.75;;
28531;SDS011;15738;44.860;10.066;2022-12-18T17:06:11;88.45;;;36.83;;
28531;SDS011;15738;44.860;10.066;2022-12-18T17:08:57;82.68;;;35.95;;
28531;SDS011;15738;44.860;10.066;2022-12-18T17:11:44;79.05;;;35.17;;
28531;SDS011;15738;44.860;10.066;2022-12-18T17:14:30;79.43;;;33.28;;
28531;SDS011;15738;44.860;10.066;2022-12-18T17:17:17;83.38;;;34.80;;
28531;SDS011;15738;44.860;10.066;2022-12-18T17:20:07;81.65;;;34.58;;
28531;SDS011;15738;44.860;10.066;2022-12-18T17:22:53;77.00;;;33.10;;
28531;SDS011;15738;44.860;10.066;2022-12-18T17:25:40;73.50;;;34.80;;
28531;SDS011;15738;44.860;10.066;2022-12-18T17:28:26;75.97;;;34.08;;
28531;SDS011;15738;44.860;10.066;2022-12-18T17:31:13;81.18;;;34.60;;
28531;SDS011;15738;44.860;10.066;2022-12-18T17:34:03;80.47;;;33.42;;
28531;SDS011;15738;44.860;10.066;2022-12-18T17:36:49;74.95;;;34.13;;
28531;SDS011;15738;44.860;10.066;2022-12-18T17:39:36;70.30;;;33.10;;
28531;SDS011;15738;44.860;10.066;2022-12-18T17:42:22;78.40;;;35.03;;
28531;SDS011;15738;44.860;10.066;2022-12-18T17:45:08;77.97;;;33.47;;
28531;SDS011;15738;44.860;10.066;2022-12-18T17:47:54;74.75;;;34.28;;
28531;SDS011;15738;44.860;10.066;2022-12-18T17:50:44;75.50;;;33.60;;
28531;SDS011;15738;44.860;10.066;2022-12-18T17:53:30;79.28;;;35.15;;